createdAt,value
2023-03-04T00:01:33.137Z,19.27
2023-03-04T00:04:18.915Z,19.30
2023-03-04T00:07:05.226Z,19.70
2023-03-04T00:09:50.808Z,18.87
2023-03-04T00:12:36.555Z,21.60
2023-03-04T00:15:21.681Z,24.63
2023-03-04T00:18:06.912Z,22.13
2023-03-04T00:20:52.480Z,20.50
2023-03-04T00:23:43.706Z,21.90
2023-03-04T00:26:28.947Z,18.23
2023-03-04T00:29:14.606Z,21.17
2023-03-04T00:32:00.192Z,19.40
2023-03-04T00:34:48.912Z,18.50
2023-03-04T00:37:36.307Z,17.77
2023-03-04T00:40:22.312Z,21.23
2023-03-04T00:43:07.957Z,22.13
2023-03-04T00:45:54.192Z,18.80
2023-03-04T00:48:40.207Z,16.63
2023-03-04T00:51:27.698Z,23.03
2023-03-04T00:54:15.008Z,14.80
2023-03-04T00:57:02.409Z,16.73
2023-03-04T00:59:47.785Z,16.90
2023-03-04T01:02:33.088Z,20.50
2023-03-04T01:05:19.138Z,15.97
2023-03-04T01:08:05.447Z,18.37
2023-03-04T01:10:51.573Z,20.13
2023-03-04T01:13:39.834Z,19.03
2023-03-04T01:16:25.594Z,18.40
2023-03-04T01:19:10.928Z,16.33
2023-03-04T01:21:56.285Z,23.17
2023-03-04T01:24:41.732Z,16.80
2023-03-04T01:27:29.621Z,13.80
2023-03-04T01:30:15.034Z,13.90
2023-03-04T01:33:00.778Z,14.20
2023-03-04T01:35:46.234Z,22.83
2023-03-04T01:38:31.735Z,19.80
2023-03-04T01:41:22.552Z,13.13
2023-03-04T01:44:12.236Z,12.40
2023-03-04T01:46:57.758Z,22.60
2023-03-04T01:49:46.608Z,16.17
2023-03-04T01:52:32.129Z,11.50
2023-03-04T01:55:23.018Z,18.47
2023-03-04T01:58:15.203Z,22.17
2023-03-04T02:01:00.893Z,14.77
2023-03-04T02:03:46.213Z,19.03
2023-03-04T02:06:31.726Z,9.17
2023-03-04T02:09:18.617Z,11.97
2023-03-04T02:12:04.522Z,12.03
2023-03-04T02:14:52.773Z,9.53
2023-03-04T02:17:38.229Z,12.50
2023-03-04T02:20:26.340Z,13.33
2023-03-04T02:23:49.218Z,13.13
2023-03-04T02:26:35.914Z,10.63
2023-03-04T02:29:22.186Z,15.27
2023-03-04T02:32:11.018Z,8.67
2023-03-04T02:34:58.992Z,4.80
2023-03-04T02:37:44.368Z,13.53
2023-03-04T02:40:34.795Z,10.90
2023-03-04T02:43:20.360Z,21.27
2023-03-04T02:46:05.999Z,11.10
2023-03-04T02:48:53.196Z,9.13
2023-03-04T02:51:41.461Z,10.67
2023-03-04T02:54:29.350Z,11.50
2023-03-04T02:57:15.408Z,7.37
2023-03-04T03:00:00.729Z,17.77
2023-03-04T03:18:45.717Z,14.93
2023-03-04T03:21:34.421Z,11.00
2023-03-04T03:24:20.463Z,23.23
2023-03-04T03:27:05.986Z,9.13
2023-03-04T03:29:51.488Z,5.20
2023-03-04T03:32:37.742Z,15.40
2023-03-04T03:35:23.560Z,5.27
2023-03-04T03:38:08.911Z,10.87
2023-03-04T03:40:54.641Z,11.43
2023-03-04T03:43:40.272Z,9.90
2023-03-04T03:46:25.641Z,18.93
2023-03-04T03:49:10.794Z,12.63
2023-03-04T03:52:01.080Z,4.53
2023-03-04T03:54:46.307Z,11.67
2023-03-04T03:57:31.605Z,17.60
2023-03-04T04:00:18.011Z,8.03
2023-03-04T04:03:03.519Z,11.73
2023-03-04T04:05:49.374Z,17.43
2023-03-04T04:08:34.869Z,9.60
2023-03-04T04:11:20.401Z,10.70
2023-03-04T04:14:05.652Z,8.23
2023-03-04T04:16:51.476Z,7.70
2023-03-04T04:19:36.879Z,14.03
2023-03-04T04:22:22.213Z,12.53
2023-03-04T04:25:10.487Z,6.17
2023-03-04T04:27:55.907Z,8.00
2023-03-04T04:30:42.259Z,5.87
2023-03-04T04:33:32.681Z,7.47
2023-03-04T04:36:17.840Z,10.57
2023-03-04T04:39:06.405Z,7.30
2023-03-04T04:41:54.264Z,6.73
2023-03-04T04:47:42.674Z,7.93
2023-03-04T04:50:28.373Z,5.50
2023-03-04T04:53:14.373Z,3.80
2023-03-04T04:56:02.343Z,5.40
2023-03-04T04:58:48.680Z,3.27
2023-03-04T05:01:34.685Z,5.80
2023-03-04T05:04:22.477Z,8.13
2023-03-04T05:07:08.305Z,4.37
2023-03-04T05:09:53.547Z,6.13
2023-03-04T05:12:39.060Z,7.33
2023-03-04T05:15:24.329Z,2.57
2023-03-04T05:18:09.780Z,6.10
2023-03-04T05:20:59.739Z,8.70
2023-03-04T05:23:47.974Z,6.20
2023-03-04T05:26:33.098Z,12.53
2023-03-04T05:29:18.661Z,6.10
2023-03-04T05:32:06.756Z,8.50
2023-03-04T05:34:52.110Z,9.80
2023-03-04T05:37:37.683Z,6.23
2023-03-04T05:40:25.790Z,5.60
2023-03-04T05:43:12.444Z,3.10
2023-03-04T05:45:58.230Z,5.37
2023-03-04T05:48:44.789Z,3.53
2023-03-04T05:51:30.216Z,10.50
2023-03-04T05:54:17.939Z,6.77
2023-03-04T05:57:05.656Z,5.40
2023-03-04T05:59:50.802Z,3.80
2023-03-04T06:02:37.563Z,8.80
2023-03-04T06:05:22.763Z,6.40
2023-03-04T06:11:11.743Z,4.67
2023-03-04T06:13:59.325Z,7.07
2023-03-04T06:16:44.763Z,4.30
2023-03-04T06:19:30.465Z,9.60
2023-03-04T06:22:18.425Z,6.63
2023-03-04T06:25:10.621Z,5.20
2023-03-04T06:27:56.025Z,4.27
2023-03-04T06:30:41.334Z,1.73
2023-03-04T06:33:29.039Z,3.60
2023-03-04T06:36:16.795Z,5.80
2023-03-04T06:42:10.796Z,4.57
2023-03-04T06:44:56.113Z,7.30
2023-03-04T06:47:42.298Z,12.07
2023-03-04T06:50:29.721Z,4.53
2023-03-04T06:53:17.263Z,2.60
2023-03-04T06:56:07.478Z,4.17
2023-03-04T06:58:52.812Z,4.97
2023-03-04T07:01:38.798Z,2.90
2023-03-04T07:04:24.760Z,8.40
2023-03-04T07:07:13.676Z,11.27
2023-03-04T07:09:59.152Z,4.67
2023-03-04T07:12:44.501Z,3.00
2023-03-04T07:15:30.478Z,4.43
2023-03-04T07:18:15.966Z,5.57
2023-03-04T07:21:01.540Z,2.60
2023-03-04T07:23:47.474Z,6.00
2023-03-04T07:26:32.923Z,3.80
2023-03-04T07:29:18.297Z,4.30
2023-03-04T07:32:08.023Z,8.37
2023-03-04T07:34:53.614Z,5.53
2023-03-04T07:40:45.980Z,8.70
2023-03-04T07:43:31.358Z,3.57
2023-03-04T07:46:17.091Z,1.80
2023-03-04T07:49:02.268Z,1.83
2023-03-04T07:51:47.716Z,3.30
2023-03-04T07:54:34.050Z,5.03
2023-03-04T07:57:20.158Z,5.07
2023-03-04T08:00:06.407Z,2.30
2023-03-04T08:02:51.856Z,3.73
2023-03-04T08:05:39.967Z,1.20
2023-03-04T08:08:25.531Z,1.10
2023-03-04T08:11:17.236Z,12.00
2023-03-04T08:14:03.427Z,2.50
2023-03-04T08:16:49.026Z,3.27
2023-03-04T08:19:36.776Z,1.23
2023-03-04T08:22:24.444Z,3.03
2023-03-04T08:25:10.104Z,1.53
2023-03-04T08:27:55.517Z,4.43
2023-03-04T08:30:42.295Z,4.47
2023-03-04T08:33:27.549Z,3.13
2023-03-04T08:36:14.483Z,1.10
2023-03-04T08:39:02.942Z,4.83
2023-03-04T08:41:48.717Z,9.20
2023-03-04T08:44:34.465Z,3.63
2023-03-04T08:47:21.780Z,3.23
2023-03-04T08:50:10.468Z,4.90
2023-03-04T08:52:59.592Z,2.30
2023-03-04T08:55:45.744Z,2.70
2023-03-04T08:58:31.079Z,0.97
2023-03-04T09:01:19.296Z,2.27
2023-03-04T09:04:05.068Z,6.00
2023-03-04T09:06:50.637Z,3.03
2023-03-04T09:09:37.150Z,1.33
2023-03-04T09:12:24.881Z,3.13
2023-03-04T09:15:12.101Z,2.17
2023-03-04T09:17:57.663Z,5.50
2023-03-04T09:20:45.344Z,5.87
2023-03-04T09:23:30.981Z,3.60
2023-03-04T09:26:23.455Z,6.03
2023-03-04T09:29:08.786Z,4.53
2023-03-04T09:31:54.108Z,2.90
2023-03-04T09:34:41.777Z,1.40
2023-03-04T09:37:27.059Z,10.60
2023-03-04T09:40:27.131Z,2.30
2023-03-04T09:43:29.511Z,2.90
2023-03-04T09:46:25.004Z,1.83
2023-03-04T09:49:13.254Z,4.03
2023-03-04T09:52:10.052Z,4.20
2023-03-04T09:55:27.599Z,2.30
2023-03-04T09:58:21.771Z,2.27
2023-03-04T10:01:29.398Z,15.87
2023-03-04T10:04:21.115Z,8.17
2023-03-04T10:07:20.096Z,4.03
2023-03-04T10:10:17.068Z,2.43
2023-03-04T10:13:04.097Z,6.60
2023-03-04T10:15:53.786Z,4.13
2023-03-04T10:18:47.263Z,3.77
2023-03-04T10:21:39.040Z,1.70
2023-03-04T10:24:28.814Z,6.67
2023-03-04T10:27:18.752Z,4.37
2023-03-04T10:30:11.340Z,8.67
2023-03-04T10:32:57.365Z,2.77
2023-03-04T10:35:48.055Z,3.17
2023-03-04T10:38:39.855Z,3.87
2023-03-04T10:41:29.996Z,6.83
2023-03-04T10:44:17.714Z,7.40
2023-03-04T10:47:06.048Z,5.63
2023-03-04T10:49:54.645Z,6.13
2023-03-04T10:52:49.897Z,4.13
2023-03-04T10:55:53.503Z,2.90
2023-03-04T10:58:41.456Z,8.50
2023-03-04T11:01:27.058Z,4.40
2023-03-04T11:04:19.005Z,4.43
2023-03-04T11:07:09.791Z,8.50
2023-03-04T11:09:58.312Z,3.43
2023-03-04T11:12:50.814Z,3.43
2023-03-04T11:16:04.564Z,6.13
2023-03-04T11:18:56.924Z,7.77
2023-03-04T11:21:43.305Z,10.53
2023-03-04T11:24:33.838Z,9.20
2023-03-04T11:27:27.673Z,7.93
2023-03-04T11:30:36.713Z,7.50
2023-03-04T11:33:42.221Z,2.63
2023-03-04T11:36:58.479Z,1.43
2023-03-04T11:39:54.749Z,6.53
2023-03-04T11:43:03.497Z,7.80
2023-03-04T11:46:05.952Z,6.87
2023-03-04T11:48:57.520Z,3.03
2023-03-04T11:51:57.984Z,3.30
2023-03-04T11:55:21.343Z,10.57
2023-03-04T11:58:18.702Z,6.43
2023-03-04T12:01:06.662Z,11.30
2023-03-04T12:04:07.701Z,6.80
2023-03-04T12:07:23.761Z,4.07
2023-03-04T12:10:21.430Z,9.50
2023-03-04T12:13:10.003Z,4.77
2023-03-04T12:16:01.336Z,6.60
2023-03-04T12:19:13.757Z,10.53
2023-03-04T12:22:27.536Z,7.73
2023-03-04T12:25:37.110Z,11.03
2023-03-04T12:29:02.594Z,8.17
2023-03-04T12:31:58.211Z,10.17
2023-03-04T12:34:58.757Z,9.07
2023-03-04T12:37:59.045Z,11.23
2023-03-04T12:41:06.616Z,5.30
2023-03-04T12:44:17.217Z,4.30
2023-03-04T12:47:14.464Z,10.87
2023-03-04T12:50:22.781Z,8.53
2023-03-04T12:53:15.508Z,4.77
2023-03-04T12:56:05.075Z,7.47
2023-03-04T12:58:53.300Z,7.83
2023-03-04T13:02:07.400Z,7.27
2023-03-04T13:05:15.387Z,4.23
2023-03-04T13:08:45.878Z,5.60
2023-03-04T13:11:41.563Z,9.33
2023-03-04T13:14:29.367Z,7.13
2023-03-04T13:17:43.633Z,2.67
2023-03-04T13:20:41.311Z,9.03
2023-03-04T13:23:29.202Z,9.30
2023-03-04T13:26:32.623Z,6.63
2023-03-04T13:29:18.479Z,12.63
2023-03-04T13:32:26.008Z,8.30
2023-03-04T13:35:46.212Z,6.20
2023-03-04T13:38:31.480Z,9.80
2023-03-04T13:41:20.069Z,3.43
2023-03-04T13:44:43.972Z,4.00
2023-03-04T13:47:43.086Z,7.80
2023-03-04T13:50:37.812Z,3.10
2023-03-04T13:53:42.829Z,10.30
2023-03-04T13:56:29.509Z,6.73
2023-03-04T13:59:39.512Z,8.10
2023-03-04T14:02:26.226Z,4.70
2023-03-04T14:05:12.350Z,9.73
2023-03-04T14:08:18.340Z,5.20
2023-03-04T14:11:04.343Z,11.73
2023-03-04T14:13:49.925Z,3.03
2023-03-04T14:16:43.347Z,4.93
2023-03-04T14:19:44.933Z,3.13
2023-03-04T14:22:33.368Z,6.40
2023-03-04T14:25:25.891Z,7.60
2023-03-04T14:28:19.388Z,13.33
2023-03-04T14:31:05.120Z,5.83
2023-03-04T14:33:57.409Z,5.50
2023-03-04T14:36:46.959Z,5.97
2023-03-04T14:39:35.945Z,6.90
2023-03-04T14:42:24.350Z,5.33
2023-03-04T14:45:16.404Z,9.13
2023-03-04T14:48:06.564Z,9.40
2023-03-04T14:50:53.417Z,7.87
2023-03-04T14:53:56.673Z,5.97
2023-03-04T14:56:45.025Z,13.03
2023-03-04T14:59:36.650Z,5.60
2023-03-04T15:02:35.838Z,10.93
2023-03-04T15:05:32.413Z,10.73
2023-03-04T15:08:21.973Z,4.40
2023-03-04T15:11:11.087Z,16.03
2023-03-04T15:13:59.860Z,19.17
2023-03-04T15:16:56.847Z,24.20
2023-03-04T15:19:42.542Z,7.37
2023-03-04T15:22:28.373Z,12.10
2023-03-04T15:25:20.370Z,6.27
2023-03-04T15:28:17.508Z,10.23
2023-03-04T15:31:07.008Z,6.40
2023-03-04T15:33:54.976Z,6.03
2023-03-04T15:36:41.230Z,7.03
2023-03-04T15:39:27.670Z,2.20
2023-03-04T15:42:13.988Z,9.27
2023-03-04T15:44:59.666Z,6.53
2023-03-04T15:47:45.036Z,3.43
2023-03-04T15:50:30.737Z,13.53
2023-03-04T15:53:36.854Z,6.40
2023-03-04T15:56:25.677Z,10.67
2023-03-04T15:59:18.425Z,11.57
2023-03-04T16:02:06.029Z,9.93
2023-03-04T16:04:52.297Z,3.60
2023-03-04T16:07:40.608Z,8.33
2023-03-04T16:10:31.162Z,9.50
2023-03-04T16:13:19.252Z,3.43
2023-03-04T16:16:04.988Z,13.60
2023-03-04T16:18:53.036Z,11.07
2023-03-04T16:21:38.818Z,1.67
2023-03-04T16:24:26.706Z,10.53
2023-03-04T16:27:19.118Z,7.03
2023-03-04T16:30:05.485Z,9.23
2023-03-04T16:32:54.740Z,17.20
2023-03-04T16:35:40.349Z,1.70
2023-03-04T16:38:34.503Z,2.63
2023-03-04T16:41:27.740Z,4.60
2023-03-04T16:44:14.805Z,8.60
2023-03-04T16:47:02.391Z,7.93
2023-03-04T16:49:52.856Z,6.73
2023-03-04T16:52:38.888Z,8.27
2023-03-04T16:55:27.370Z,7.47
2023-03-04T16:58:13.069Z,6.10
2023-03-04T17:00:59.540Z,4.00
2023-03-04T17:03:45.431Z,2.60
2023-03-04T17:06:34.473Z,8.90
2023-03-04T17:09:20.369Z,4.20
2023-03-04T17:12:08.247Z,4.73
2023-03-04T17:14:53.837Z,3.57
2023-03-04T17:17:40.221Z,4.17
2023-03-04T17:20:26.531Z,7.87
2023-03-04T17:23:12.097Z,4.00
2023-03-04T17:25:59.731Z,4.00
2023-03-04T17:28:47.454Z,7.30
2023-03-04T17:31:36.831Z,9.70
2023-03-04T17:34:25.908Z,3.23
2023-03-04T17:37:11.641Z,6.00
2023-03-04T17:39:57.260Z,4.17
2023-03-04T17:42:43.802Z,8.03
2023-03-04T17:45:29.774Z,6.70
2023-03-04T17:48:17.706Z,2.63
2023-03-04T17:51:06.042Z,2.77
2023-03-04T17:53:53.903Z,11.53
2023-03-04T17:56:40.684Z,11.77
2023-03-04T17:59:26.009Z,4.93
2023-03-04T18:02:15.219Z,5.30
2023-03-04T18:05:06.749Z,4.17
2023-03-04T18:07:52.932Z,9.17
2023-03-04T18:10:38.317Z,3.50
2023-03-04T18:13:26.212Z,4.80
2023-03-04T18:16:14.964Z,1.70
2023-03-04T18:19:02.024Z,6.50
2023-03-04T18:21:47.688Z,5.13
2023-03-04T18:24:33.636Z,7.90
2023-03-04T18:27:19.855Z,6.30
2023-03-04T18:30:10.490Z,7.13
2023-03-04T18:32:59.584Z,6.07
2023-03-04T18:35:45.952Z,7.23
2023-03-04T18:38:31.975Z,6.40
2023-03-04T18:41:17.837Z,4.20
2023-03-04T18:44:08.377Z,1.73
2023-03-04T18:46:57.462Z,8.97
2023-03-04T18:49:45.890Z,18.43
2023-03-04T18:52:31.316Z,11.30
2023-03-04T18:55:18.398Z,5.67
2023-03-04T18:58:04.268Z,5.57
2023-03-04T19:00:49.693Z,7.70
2023-03-04T19:03:39.442Z,7.53
2023-03-04T19:06:25.890Z,4.07
2023-03-04T19:09:11.807Z,7.53
2023-03-04T19:11:57.399Z,4.67
2023-03-04T19:14:42.892Z,7.43
2023-03-04T19:17:32.679Z,10.27
2023-03-04T19:20:18.601Z,12.83
2023-03-04T19:23:07.370Z,4.27
2023-03-04T19:25:52.790Z,3.73
2023-03-04T19:31:45.835Z,4.47
2023-03-04T19:34:31.284Z,6.53
2023-03-04T19:37:16.788Z,10.80
2023-03-04T19:40:03.304Z,8.50
2023-03-04T19:42:53.479Z,7.50
2023-03-04T19:45:38.864Z,10.70
2023-03-04T19:48:24.793Z,9.87
2023-03-04T19:51:22.632Z,9.33
2023-03-04T19:54:08.939Z,2.93
2023-03-04T19:56:58.613Z,5.57
2023-03-04T20:00:03.136Z,10.77
2023-03-04T20:02:55.377Z,10.50
2023-03-04T20:05:48.017Z,9.30
2023-03-04T20:08:36.540Z,13.27
2023-03-04T20:11:29.937Z,8.63
2023-03-04T20:14:18.333Z,8.87
2023-03-04T20:17:06.629Z,2.73
2023-03-04T20:19:52.464Z,1.60
2023-03-04T20:22:38.518Z,6.37
2023-03-04T20:25:24.616Z,9.63
2023-03-04T20:28:13.083Z,10.97
2023-03-04T20:31:15.848Z,3.93
2023-03-04T20:34:01.545Z,9.13
2023-03-04T20:36:47.768Z,8.23
2023-03-04T20:39:33.610Z,5.73
2023-03-04T20:42:21.102Z,4.80
2023-03-04T20:45:06.951Z,5.60
2023-03-04T20:47:54.328Z,3.87
2023-03-04T20:50:42.160Z,2.90
2023-03-04T20:53:27.735Z,1.77
2023-03-04T20:56:13.121Z,2.20
2023-03-04T20:59:01.121Z,2.77
2023-03-04T21:01:50.266Z,7.97
2023-03-04T21:04:36.731Z,1.07
2023-03-04T21:07:24.217Z,2.40
2023-03-04T21:10:12.403Z,1.03
2023-03-04T21:12:57.768Z,2.90
2023-03-04T21:15:50.302Z,1.67
2023-03-04T21:18:36.115Z,1.73
2023-03-04T21:21:27.773Z,1.40
2023-03-04T21:24:16.025Z,2.00
2023-03-04T21:27:04.207Z,1.00
2023-03-04T21:29:50.515Z,3.40
2023-03-04T21:32:35.852Z,1.37
2023-03-04T21:35:21.524Z,1.13
2023-03-04T21:38:09.365Z,3.13
2023-03-04T21:40:54.838Z,2.50
2023-03-04T21:43:43.233Z,1.90
2023-03-04T21:46:28.426Z,28.23
2023-03-04T21:49:17.002Z,2.27
2023-03-04T21:52:03.646Z,5.60
2023-03-04T21:54:49.854Z,1.70
2023-03-04T21:57:35.331Z,1.07
2023-03-04T22:00:21.783Z,3.90
2023-03-04T22:03:07.345Z,2.60
2023-03-04T22:05:53.082Z,1.60
2023-03-04T22:08:39.333Z,1.60
2023-03-04T22:11:24.882Z,0.83
2023-03-04T22:14:11.260Z,2.50
2023-03-04T22:16:59.392Z,2.70
2023-03-04T22:19:44.682Z,2.20
2023-03-04T22:22:32.376Z,5.17
2023-03-04T22:25:20.087Z,1.97
2023-03-04T22:28:05.666Z,4.33
2023-03-04T22:30:53.591Z,2.10
2023-03-04T22:33:41.692Z,8.13
2023-03-04T22:36:29.255Z,3.90
2023-03-04T22:39:19.447Z,1.63
2023-03-04T22:42:05.496Z,8.67
2023-03-04T22:47:57.114Z,5.13
2023-03-04T22:50:42.437Z,3.10
2023-03-04T22:53:27.831Z,2.70
2023-03-04T22:56:14.838Z,4.97
2023-03-04T22:59:00.348Z,4.00
2023-03-04T23:01:45.926Z,5.87
2023-03-04T23:04:33.942Z,13.23
2023-03-04T23:07:21.490Z,6.90
2023-03-04T23:10:09.520Z,10.63
2023-03-04T23:12:54.704Z,4.53
2023-03-04T23:15:42.947Z,12.13
2023-03-04T23:18:30.488Z,3.73
2023-03-04T23:21:21.458Z,6.53
2023-03-04T23:24:08.273Z,6.77
2023-03-04T23:26:54.527Z,3.77
2023-03-04T23:29:39.911Z,15.03
2023-03-04T23:32:28.032Z,6.80
2023-03-04T23:35:13.535Z,6.10
2023-03-04T23:37:58.783Z,11.93
2023-03-04T23:40:44.158Z,8.80
2023-03-04T23:43:31.847Z,4.57
2023-03-04T23:46:20.461Z,5.23
2023-03-04T23:49:08.204Z,7.10
2023-03-04T23:51:53.446Z,2.90
2023-03-04T23:54:39.127Z,10.50
2023-03-04T23:57:24.497Z,5.23
